sensor_id;sensor_type;location;lat;lon;timestamp;P1;durP1;ratioP1;P2;durP2;ratioP2
10333;SDS011;5212;47.892;16.406;2023-07-08T00:01:26;5.37;;;4.87;;
10333;SDS011;5212;47.892;16.406;2023-07-08T00:03:52;5.93;;;5.23;;
10333;SDS011;5212;47.892;16.406;2023-07-08T00:06:19;5.33;;;4.80;;
10333;SDS011;5212;47.892;16.406;2023-07-08T00:08:46;5.97;;;4.70;;
10333;SDS011;5212;47.892;16.406;2023-07-08T00:11:12;5.13;;;4.63;;
10333;SDS011;5212;47.892;16.406;2023-07-08T00:13:39;4.70;;;4.27;;
10333;SDS011;5212;47.892;16.406;2023-07-08T00:16:08;4.90;;;4.40;;
10333;SDS011;5212;47.892;16.406;2023-07-08T00:18:35;4.73;;;4.33;;
10333;SDS011;5212;47.892;16.406;2023-07-08T00:21:01;5.50;;;5.00;;
10333;SDS011;5212;47.892;16.406;2023-07-08T00:23:28;4.50;;;4.10;;
10333;SDS011;5212;47.892;16.406;2023-07-08T00:25:54;5.67;;;5.07;;
10333;SDS011;5212;47.892;16.406;2023-07-08T00:28:20;5.20;;;4.70;;
10333;SDS011;5212;47.892;16.406;2023-07-08T00:30:47;5.73;;;4.80;;
10333;SDS011;5212;47.892;16.406;2023-07-08T00:33:14;5.30;;;4.80;;
10333;SDS011;5212;47.892;16.406;2023-07-08T00:35:42;5.07;;;4.57;;
10333;SDS011;5212;47.892;16.406;2023-07-08T00:38:11;5.43;;;4.77;;
10333;SDS011;5212;47.892;16.406;2023-07-08T00:40:47;4.73;;;4.30;;
10333;SDS011;5212;47.892;16.406;2023-07-08T00:43:15;4.90;;;4.40;;
10333;SDS011;5212;47.892;16.406;2023-07-08T00:45:41;5.10;;;4.60;;
10333;SDS011;5212;47.892;16.406;2023-07-08T00:48:14;5.83;;;4.80;;
10333;SDS011;5212;47.892;16.406;2023-07-08T00:50:43;5.40;;;4.90;;
10333;SDS011;5212;47.892;16.406;2023-07-08T00:53:20;5.43;;;4.90;;
10333;SDS011;5212;47.892;16.406;2023-07-08T00:55:48;5.67;;;4.73;;
10333;SDS011;5212;47.892;16.406;2023-07-08T00:58:15;6.63;;;5.10;;
10333;SDS011;5212;47.892;16.406;2023-07-08T01:00:43;5.97;;;4.63;;
10333;SDS011;5212;47.892;16.406;2023-07-08T01:03:09;5.03;;;4.53;;
10333;SDS011;5212;47.892;16.406;2023-07-08T01:05:35;5.10;;;4.60;;
10333;SDS011;5212;47.892;16.406;2023-07-08T01:08:03;4.70;;;4.30;;
10333;SDS011;5212;47.892;16.406;2023-07-08T01:10:32;5.20;;;4.70;;
10333;SDS011;5212;47.892;16.406;2023-07-08T01:13:00;5.00;;;4.50;;
10333;SDS011;5212;47.892;16.406;2023-07-08T01:15:30;5.97;;;5.00;;
10333;SDS011;5212;47.892;16.406;2023-07-08T01:17:58;5.37;;;4.83;;
10333;SDS011;5212;47.892;16.406;2023-07-08T01:20:25;5.97;;;5.33;;
10333;SDS011;5212;47.892;16.406;2023-07-08T01:22:51;5.40;;;4.90;;
10333;SDS011;5212;47.892;16.406;2023-07-08T01:25:18;5.90;;;4.93;;
10333;SDS011;5212;47.892;16.406;2023-07-08T01:27:44;5.57;;;5.00;;
10333;SDS011;5212;47.892;16.406;2023-07-08T01:30:12;6.70;;;5.03;;
10333;SDS011;5212;47.892;16.406;2023-07-08T01:32:43;5.73;;;5.13;;
10333;SDS011;5212;47.892;16.406;2023-07-08T01:35:11;5.73;;;4.73;;
10333;SDS011;5212;47.892;16.406;2023-07-08T01:37:39;5.67;;;5.17;;
10333;SDS011;5212;47.892;16.406;2023-07-08T01:40:17;5.70;;;4.90;;
10333;SDS011;5212;47.892;16.406;2023-07-08T01:42:51;6.40;;;5.67;;
10333;SDS011;5212;47.892;16.406;2023-07-08T01:45:18;5.43;;;4.93;;
10333;SDS011;5212;47.892;16.406;2023-07-08T01:47:47;5.23;;;4.73;;
10333;SDS011;5212;47.892;16.406;2023-07-08T01:50:16;5.27;;;4.77;;
10333;SDS011;5212;47.892;16.406;2023-07-08T01:52:42;4.50;;;4.10;;
10333;SDS011;5212;47.892;16.406;2023-07-08T01:55:08;4.67;;;4.27;;
10333;SDS011;5212;47.892;16.406;2023-07-08T01:57:35;5.00;;;4.50;;
10333;SDS011;5212;47.892;16.406;2023-07-08T02:00:01;5.13;;;4.63;;
10333;SDS011;5212;47.892;16.406;2023-07-08T02:02:27;5.67;;;4.63;;
10333;SDS011;5212;47.892;16.406;2023-07-08T02:04:54;5.13;;;4.60;;
10333;SDS011;5212;47.892;16.406;2023-07-08T02:07:20;4.93;;;4.43;;
10333;SDS011;5212;47.892;16.406;2023-07-08T02:09:45;5.13;;;4.63;;
10333;SDS011;5212;47.892;16.406;2023-07-08T02:12:11;4.97;;;4.47;;
10333;SDS011;5212;47.892;16.406;2023-07-08T02:14:38;4.77;;;4.10;;
10333;SDS011;5212;47.892;16.406;2023-07-08T02:17:04;5.60;;;4.87;;
10333;SDS011;5212;47.892;16.406;2023-07-08T02:19:31;4.73;;;4.33;;
10333;SDS011;5212;47.892;16.406;2023-07-08T02:21:57;5.07;;;4.57;;
10333;SDS011;5212;47.892;16.406;2023-07-08T02:24:23;5.17;;;4.30;;
10333;SDS011;5212;47.892;16.406;2023-07-08T02:26:49;4.80;;;4.40;;
10333;SDS011;5212;47.892;16.406;2023-07-08T02:29:15;5.20;;;4.70;;
10333;SDS011;5212;47.892;16.406;2023-07-08T02:31:41;4.77;;;4.37;;
10333;SDS011;5212;47.892;16.406;2023-07-08T02:34:07;4.80;;;4.40;;
10333;SDS011;5212;47.892;16.406;2023-07-08T02:36:33;5.13;;;4.37;;
10333;SDS011;5212;47.892;16.406;2023-07-08T02:39:00;5.40;;;4.90;;
10333;SDS011;5212;47.892;16.406;2023-07-08T02:41:26;5.10;;;4.60;;
10333;SDS011;5212;47.892;16.406;2023-07-08T02:43:52;4.87;;;4.47;;
10333;SDS011;5212;47.892;16.406;2023-07-08T02:46:18;5.17;;;4.50;;
10333;SDS011;5212;47.892;16.406;2023-07-08T02:48:44;6.50;;;4.80;;
10333;SDS011;5212;47.892;16.406;2023-07-08T02:51:10;5.40;;;4.83;;
10333;SDS011;5212;47.892;16.406;2023-07-08T02:53:36;6.13;;;4.67;;
10333;SDS011;5212;47.892;16.406;2023-07-08T02:56:02;6.67;;;4.63;;
10333;SDS011;5212;47.892;16.406;2023-07-08T02:58:29;5.30;;;4.50;;
10333;SDS011;5212;47.892;16.406;2023-07-08T03:00:55;4.77;;;4.23;;
10333;SDS011;5212;47.892;16.406;2023-07-08T03:03:24;4.50;;;4.10;;
10333;SDS011;5212;47.892;16.406;2023-07-08T03:05:56;5.63;;;4.90;;
10333;SDS011;5212;47.892;16.406;2023-07-08T03:08:23;5.10;;;4.60;;
10333;SDS011;5212;47.892;16.406;2023-07-08T03:10:54;6.13;;;5.37;;
10333;SDS011;5212;47.892;16.406;2023-07-08T03:13:21;5.97;;;5.37;;
10333;SDS011;5212;47.892;16.406;2023-07-08T03:15:47;6.00;;;5.30;;
10333;SDS011;5212;47.892;16.406;2023-07-08T03:18:13;5.20;;;4.70;;
10333;SDS011;5212;47.892;16.406;2023-07-08T03:20:39;5.93;;;5.20;;
10333;SDS011;5212;47.892;16.406;2023-07-08T03:23:05;5.20;;;4.67;;
10333;SDS011;5212;47.892;16.406;2023-07-08T03:25:31;4.93;;;4.47;;
10333;SDS011;5212;47.892;16.406;2023-07-08T03:27:57;5.90;;;5.30;;
10333;SDS011;5212;47.892;16.406;2023-07-08T03:30:24;6.53;;;4.60;;
10333;SDS011;5212;47.892;16.406;2023-07-08T03:32:52;4.63;;;4.23;;
10333;SDS011;5212;47.892;16.406;2023-07-08T03:35:20;5.60;;;5.07;;
10333;SDS011;5212;47.892;16.406;2023-07-08T03:37:47;6.30;;;4.93;;
10333;SDS011;5212;47.892;16.406;2023-07-08T03:40:13;5.13;;;4.63;;
10333;SDS011;5212;47.892;16.406;2023-07-08T03:42:39;5.47;;;4.93;;
10333;SDS011;5212;47.892;16.406;2023-07-08T03:45:06;4.67;;;4.27;;
10333;SDS011;5212;47.892;16.406;2023-07-08T03:47:32;5.37;;;4.87;;
10333;SDS011;5212;47.892;16.406;2023-07-08T03:49:58;5.27;;;4.70;;
10333;SDS011;5212;47.892;16.406;2023-07-08T03:52:24;5.53;;;4.67;;
10333;SDS011;5212;47.892;16.406;2023-07-08T03:54:50;5.30;;;4.77;;
10333;SDS011;5212;47.892;16.406;2023-07-08T03:57:17;6.90;;;5.33;;
10333;SDS011;5212;47.892;16.406;2023-07-08T03:59:43;6.93;;;5.57;;
10333;SDS011;5212;47.892;16.406;2023-07-08T04:02:10;6.57;;;5.50;;
10333;SDS011;5212;47.892;16.406;2023-07-08T04:04:36;5.93;;;5.30;;
10333;SDS011;5212;47.892;16.406;2023-07-08T04:07:03;7.50;;;5.70;;
10333;SDS011;5212;47.892;16.406;2023-07-08T04:09:29;6.43;;;5.73;;
10333;SDS011;5212;47.892;16.406;2023-07-08T04:11:55;6.43;;;5.47;;
10333;SDS011;5212;47.892;16.406;2023-07-08T04:14:22;6.40;;;5.63;;
10333;SDS011;5212;47.892;16.406;2023-07-08T04:16:48;6.60;;;5.87;;
10333;SDS011;5212;47.892;16.406;2023-07-08T04:19:18;6.77;;;5.23;;
10333;SDS011;5212;47.892;16.406;2023-07-08T04:21:45;6.40;;;5.30;;
10333;SDS011;5212;47.892;16.406;2023-07-08T04:24:11;5.90;;;5.00;;
10333;SDS011;5212;47.892;16.406;2023-07-08T04:26:38;6.37;;;5.77;;
10333;SDS011;5212;47.892;16.406;2023-07-08T04:29:04;6.37;;;5.10;;
10333;SDS011;5212;47.892;16.406;2023-07-08T04:31:32;6.03;;;5.40;;
10333;SDS011;5212;47.892;16.406;2023-07-08T04:33:58;5.50;;;5.00;;
10333;SDS011;5212;47.892;16.406;2023-07-08T04:36:24;5.40;;;4.90;;
10333;SDS011;5212;47.892;16.406;2023-07-08T04:38:51;5.40;;;4.90;;
10333;SDS011;5212;47.892;16.406;2023-07-08T04:41:17;5.53;;;5.03;;
10333;SDS011;5212;47.892;16.406;2023-07-08T04:43:44;5.03;;;4.53;;
10333;SDS011;5212;47.892;16.406;2023-07-08T04:46:14;4.63;;;4.23;;
10333;SDS011;5212;47.892;16.406;2023-07-08T04:48:45;5.27;;;4.77;;
10333;SDS011;5212;47.892;16.406;2023-07-08T04:51:13;5.40;;;4.70;;
10333;SDS011;5212;47.892;16.406;2023-07-08T04:53:39;5.07;;;4.33;;
10333;SDS011;5212;47.892;16.406;2023-07-08T04:56:05;5.23;;;4.73;;
10333;SDS011;5212;47.892;16.406;2023-07-08T04:58:31;4.97;;;4.57;;
10333;SDS011;5212;47.892;16.406;2023-07-08T05:00:57;8.13;;;5.43;;
10333;SDS011;5212;47.892;16.406;2023-07-08T05:03:23;5.67;;;5.10;;
10333;SDS011;5212;47.892;16.406;2023-07-08T05:05:49;5.30;;;4.80;;
10333;SDS011;5212;47.892;16.406;2023-07-08T05:08:15;5.03;;;4.53;;
10333;SDS011;5212;47.892;16.406;2023-07-08T05:10:41;5.73;;;4.80;;
10333;SDS011;5212;47.892;16.406;2023-07-08T05:13:07;5.57;;;4.70;;
10333;SDS011;5212;47.892;16.406;2023-07-08T05:15:33;5.57;;;5.00;;
10333;SDS011;5212;47.892;16.406;2023-07-08T05:18:00;5.40;;;4.77;;
10333;SDS011;5212;47.892;16.406;2023-07-08T05:20:26;6.40;;;5.10;;
10333;SDS011;5212;47.892;16.406;2023-07-08T05:22:54;5.80;;;5.20;;
10333;SDS011;5212;47.892;16.406;2023-07-08T05:25:19;6.20;;;5.10;;
10333;SDS011;5212;47.892;16.406;2023-07-08T05:27:46;5.23;;;4.73;;
10333;SDS011;5212;47.892;16.406;2023-07-08T05:30:14;5.23;;;4.73;;
10333;SDS011;5212;47.892;16.406;2023-07-08T05:32:41;6.57;;;5.33;;
10333;SDS011;5212;47.892;16.406;2023-07-08T05:35:07;5.77;;;4.90;;
10333;SDS011;5212;47.892;16.406;2023-07-08T05:37:33;8.17;;;5.27;;
10333;SDS011;5212;47.892;16.406;2023-07-08T05:40:00;6.00;;;5.40;;
10333;SDS011;5212;47.892;16.406;2023-07-08T05:42:29;6.60;;;5.73;;
10333;SDS011;5212;47.892;16.406;2023-07-08T05:44:55;7.03;;;5.30;;
10333;SDS011;5212;47.892;16.406;2023-07-08T05:47:21;6.10;;;5.50;;
10333;SDS011;5212;47.892;16.406;2023-07-08T05:49:47;5.90;;;5.30;;
10333;SDS011;5212;47.892;16.406;2023-07-08T05:52:13;6.00;;;5.30;;
10333;SDS011;5212;47.892;16.406;2023-07-08T05:54:40;5.37;;;4.87;;
10333;SDS011;5212;47.892;16.406;2023-07-08T05:57:08;5.70;;;5.10;;
10333;SDS011;5212;47.892;16.406;2023-07-08T05:59:35;5.40;;;4.90;;
10333;SDS011;5212;47.892;16.406;2023-07-08T06:02:04;7.13;;;5.60;;
10333;SDS011;5212;47.892;16.406;2023-07-08T06:04:31;6.30;;;4.80;;
10333;SDS011;5212;47.892;16.406;2023-07-08T06:06:57;6.27;;;5.10;;
10333;SDS011;5212;47.892;16.406;2023-07-08T06:09:23;6.17;;;5.03;;
10333;SDS011;5212;47.892;16.406;2023-07-08T06:11:49;5.77;;;5.03;;
10333;SDS011;5212;47.892;16.406;2023-07-08T06:14:15;5.30;;;4.80;;
10333;SDS011;5212;47.892;16.406;2023-07-08T06:16:41;5.40;;;4.90;;
10333;SDS011;5212;47.892;16.406;2023-07-08T06:19:08;6.00;;;5.27;;
10333;SDS011;5212;47.892;16.406;2023-07-08T06:21:34;6.30;;;5.10;;
10333;SDS011;5212;47.892;16.406;2023-07-08T06:24:00;5.80;;;5.20;;
10333;SDS011;5212;47.892;16.406;2023-07-08T06:26:26;5.67;;;4.87;;
10333;SDS011;5212;47.892;16.406;2023-07-08T06:28:52;5.67;;;5.10;;
10333;SDS011;5212;47.892;16.406;2023-07-08T06:31:19;5.73;;;4.67;;
10333;SDS011;5212;47.892;16.406;2023-07-08T06:33:45;7.33;;;4.90;;
10333;SDS011;5212;47.892;16.406;2023-07-08T06:36:11;5.23;;;4.60;;
10333;SDS011;5212;47.892;16.406;2023-07-08T06:38:37;4.87;;;4.37;;
10333;SDS011;5212;47.892;16.406;2023-07-08T06:41:03;4.80;;;4.40;;
10333;SDS011;5212;47.892;16.406;2023-07-08T06:43:29;4.63;;;4.23;;
10333;SDS011;5212;47.892;16.406;2023-07-08T06:45:55;6.10;;;4.50;;
10333;SDS011;5212;47.892;16.406;2023-07-08T06:48:22;7.80;;;4.50;;
10333;SDS011;5212;47.892;16.406;2023-07-08T06:50:49;5.73;;;4.80;;
10333;SDS011;5212;47.892;16.406;2023-07-08T06:53:15;5.63;;;4.93;;
10333;SDS011;5212;47.892;16.406;2023-07-08T06:55:43;5.20;;;4.70;;
10333;SDS011;5212;47.892;16.406;2023-07-08T06:58:09;4.80;;;4.40;;
10333;SDS011;5212;47.892;16.406;2023-07-08T07:00:35;5.23;;;4.60;;
10333;SDS011;5212;47.892;16.406;2023-07-08T07:03:02;6.53;;;4.97;;
10333;SDS011;5212;47.892;16.406;2023-07-08T07:05:29;5.50;;;4.97;;
10333;SDS011;5212;47.892;16.406;2023-07-08T07:07:55;5.90;;;4.53;;
10333;SDS011;5212;47.892;16.406;2023-07-08T07:10:21;4.17;;;3.80;;
10333;SDS011;5212;47.892;16.406;2023-07-08T07:12:47;4.20;;;3.73;;
10333;SDS011;5212;47.892;16.406;2023-07-08T07:15:13;4.57;;;4.17;;
10333;SDS011;5212;47.892;16.406;2023-07-08T07:17:39;5.40;;;4.63;;
10333;SDS011;5212;47.892;16.406;2023-07-08T07:20:06;5.23;;;4.67;;
10333;SDS011;5212;47.892;16.406;2023-07-08T07:22:34;4.40;;;4.00;;
10333;SDS011;5212;47.892;16.406;2023-07-08T07:25:01;5.60;;;4.27;;
10333;SDS011;5212;47.892;16.406;2023-07-08T07:27:27;4.63;;;4.23;;
10333;SDS011;5212;47.892;16.406;2023-07-08T07:29:53;4.47;;;4.07;;
10333;SDS011;5212;47.892;16.406;2023-07-08T07:32:21;4.43;;;3.80;;
10333;SDS011;5212;47.892;16.406;2023-07-08T07:34:49;5.97;;;4.50;;
10333;SDS011;5212;47.892;16.406;2023-07-08T07:37:15;4.97;;;4.53;;
10333;SDS011;5212;47.892;16.406;2023-07-08T07:39:43;5.20;;;4.30;;
10333;SDS011;5212;47.892;16.406;2023-07-08T07:42:10;5.00;;;4.50;;
10333;SDS011;5212;47.892;16.406;2023-07-08T07:44:37;4.30;;;3.90;;
10333;SDS011;5212;47.892;16.406;2023-07-08T07:47:05;4.13;;;3.73;;
10333;SDS011;5212;47.892;16.406;2023-07-08T07:49:31;4.00;;;3.60;;
10333;SDS011;5212;47.892;16.406;2023-07-08T07:51:58;8.50;;;4.77;;
10333;SDS011;5212;47.892;16.406;2023-07-08T07:54:24;5.60;;;3.80;;
10333;SDS011;5212;47.892;16.406;2023-07-08T07:56:51;4.30;;;3.90;;
10333;SDS011;5212;47.892;16.406;2023-07-08T07:59:17;5.67;;;4.10;;
10333;SDS011;5212;47.892;16.406;2023-07-08T08:01:43;4.90;;;3.80;;
10333;SDS011;5212;47.892;16.406;2023-07-08T08:04:09;5.27;;;4.03;;
10333;SDS011;5212;47.892;16.406;2023-07-08T08:06:36;4.47;;;4.07;;
10333;SDS011;5212;47.892;16.406;2023-07-08T08:09:03;4.30;;;3.70;;
10333;SDS011;5212;47.892;16.406;2023-07-08T08:11:29;4.80;;;3.97;;
10333;SDS011;5212;47.892;16.406;2023-07-08T08:13:56;5.57;;;4.17;;
10333;SDS011;5212;47.892;16.406;2023-07-08T08:16:22;4.20;;;3.80;;
10333;SDS011;5212;47.892;16.406;2023-07-08T08:18:48;4.87;;;4.07;;
10333;SDS011;5212;47.892;16.406;2023-07-08T08:21:14;4.23;;;3.83;;
10333;SDS011;5212;47.892;16.406;2023-07-08T08:23:40;5.80;;;3.83;;
10333;SDS011;5212;47.892;16.406;2023-07-08T08:26:06;4.50;;;4.10;;
10333;SDS011;5212;47.892;16.406;2023-07-08T08:28:32;3.93;;;3.40;;
10333;SDS011;5212;47.892;16.406;2023-07-08T08:30:59;3.47;;;3.10;;
10333;SDS011;5212;47.892;16.406;2023-07-08T08:33:25;3.60;;;3.30;;
10333;SDS011;5212;47.892;16.406;2023-07-08T08:35:51;3.23;;;2.90;;
10333;SDS011;5212;47.892;16.406;2023-07-08T08:38:17;3.57;;;2.90;;
10333;SDS011;5212;47.892;16.406;2023-07-08T08:40:43;3.93;;;3.10;;
10333;SDS011;5212;47.892;16.406;2023-07-08T08:43:10;3.10;;;2.80;;
10333;SDS011;5212;47.892;16.406;2023-07-08T08:45:39;3.13;;;2.87;;
10333;SDS011;5212;47.892;16.406;2023-07-08T08:48:10;3.37;;;3.00;;
10333;SDS011;5212;47.892;16.406;2023-07-08T08:50:39;3.10;;;2.67;;
10333;SDS011;5212;47.892;16.406;2023-07-08T08:53:09;3.17;;;2.87;;
10333;SDS011;5212;47.892;16.406;2023-07-08T08:55:37;3.00;;;2.70;;
10333;SDS011;5212;47.892;16.406;2023-07-08T08:58:06;3.20;;;2.90;;
10333;SDS011;5212;47.892;16.406;2023-07-08T09:00:42;2.77;;;2.53;;
10333;SDS011;5212;47.892;16.406;2023-07-08T09:03:12;3.60;;;3.30;;
10333;SDS011;5212;47.892;16.406;2023-07-08T09:05:41;4.33;;;3.40;;
10333;SDS011;5212;47.892;16.406;2023-07-08T09:08:10;3.73;;;3.10;;
10333;SDS011;5212;47.892;16.406;2023-07-08T09:10:41;5.13;;;3.20;;
10333;SDS011;5212;47.892;16.406;2023-07-08T09:13:11;4.27;;;2.97;;
10333;SDS011;5212;47.892;16.406;2023-07-08T09:15:42;3.43;;;3.00;;
10333;SDS011;5212;47.892;16.406;2023-07-08T09:18:11;7.43;;;3.37;;
10333;SDS011;5212;47.892;16.406;2023-07-08T09:20:43;3.43;;;3.10;;
10333;SDS011;5212;47.892;16.406;2023-07-08T09:23:10;4.20;;;3.10;;
10333;SDS011;5212;47.892;16.406;2023-07-08T09:25:44;3.77;;;3.23;;
10333;SDS011;5212;47.892;16.406;2023-07-08T09:28:14;4.20;;;3.17;;
10333;SDS011;5212;47.892;16.406;2023-07-08T09:30:40;4.00;;;3.00;;
10333;SDS011;5212;47.892;16.406;2023-07-08T09:33:06;3.23;;;2.93;;
10333;SDS011;5212;47.892;16.406;2023-07-08T09:35:38;3.37;;;3.07;;
10333;SDS011;5212;47.892;16.406;2023-07-08T09:38:06;4.93;;;3.60;;
10333;SDS011;5212;47.892;16.406;2023-07-08T09:40:33;3.67;;;3.27;;
10333;SDS011;5212;47.892;16.406;2023-07-08T09:43:00;4.07;;;3.27;;
10333;SDS011;5212;47.892;16.406;2023-07-08T09:45:28;3.63;;;3.33;;
10333;SDS011;5212;47.892;16.406;2023-07-08T09:47:55;5.70;;;4.00;;
10333;SDS011;5212;47.892;16.406;2023-07-08T09:50:23;4.57;;;3.33;;
10333;SDS011;5212;47.892;16.406;2023-07-08T09:52:51;5.87;;;3.70;;
10333;SDS011;5212;47.892;16.406;2023-07-08T09:55:19;5.07;;;3.30;;
10333;SDS011;5212;47.892;16.406;2023-07-08T09:57:45;3.80;;;3.10;;
10333;SDS011;5212;47.892;16.406;2023-07-08T10:00:14;3.97;;;3.57;;
10333;SDS011;5212;47.892;16.406;2023-07-08T10:02:43;4.57;;;3.40;;
10333;SDS011;5212;47.892;16.406;2023-07-08T10:05:16;3.80;;;3.13;;
10333;SDS011;5212;47.892;16.406;2023-07-08T10:07:44;3.80;;;3.40;;
10333;SDS011;5212;47.892;16.406;2023-07-08T10:10:12;6.30;;;3.10;;
10333;SDS011;5212;47.892;16.406;2023-07-08T10:12:40;4.23;;;3.03;;
10333;SDS011;5212;47.892;16.406;2023-07-08T10:15:12;4.90;;;2.90;;
10333;SDS011;5212;47.892;16.406;2023-07-08T10:17:40;3.53;;;3.10;;
10333;SDS011;5212;47.892;16.406;2023-07-08T10:20:10;5.43;;;3.20;;
10333;SDS011;5212;47.892;16.406;2023-07-08T10:22:38;5.50;;;3.87;;
10333;SDS011;5212;47.892;16.406;2023-07-08T10:25:11;5.17;;;3.40;;
10333;SDS011;5212;47.892;16.406;2023-07-08T10:27:45;2.90;;;2.60;;
10333;SDS011;5212;47.892;16.406;2023-07-08T10:30:18;3.53;;;3.10;;
10333;SDS011;5212;47.892;16.406;2023-07-08T10:32:50;4.37;;;3.10;;
10333;SDS011;5212;47.892;16.406;2023-07-08T10:35:27;3.70;;;3.40;;
10333;SDS011;5212;47.892;16.406;2023-07-08T10:37:58;3.83;;;3.20;;
10333;SDS011;5212;47.892;16.406;2023-07-08T10:40:33;3.90;;;3.50;;
10333;SDS011;5212;47.892;16.406;2023-07-08T10:43:21;3.50;;;3.20;;
10333;SDS011;5212;47.892;16.406;2023-07-08T10:46:09;3.93;;;2.87;;
10333;SDS011;5212;47.892;16.406;2023-07-08T10:48:51;3.50;;;3.00;;
10333;SDS011;5212;47.892;16.406;2023-07-08T10:51:26;6.10;;;3.10;;
10333;SDS011;5212;47.892;16.406;2023-07-08T10:54:01;3.60;;;2.90;;
10333;SDS011;5212;47.892;16.406;2023-07-08T10:56:47;4.53;;;3.40;;
10333;SDS011;5212;47.892;16.406;2023-07-08T10:59:23;4.10;;;3.30;;
10333;SDS011;5212;47.892;16.406;2023-07-08T11:02:02;3.80;;;3.23;;
10333;SDS011;5212;47.892;16.406;2023-07-08T11:04:43;5.50;;;2.90;;
10333;SDS011;5212;47.892;16.406;2023-07-08T11:07:16;4.20;;;3.00;;
10333;SDS011;5212;47.892;16.406;2023-07-08T11:09:46;3.10;;;2.77;;
10333;SDS011;5212;47.892;16.406;2023-07-08T11:12:17;4.87;;;3.40;;
10333;SDS011;5212;47.892;16.406;2023-07-08T11:14:49;4.93;;;2.90;;
10333;SDS011;5212;47.892;16.406;2023-07-08T11:17:18;4.47;;;3.10;;
10333;SDS011;5212;47.892;16.406;2023-07-08T11:19:48;3.30;;;2.80;;
10333;SDS011;5212;47.892;16.406;2023-07-08T11:22:17;3.40;;;3.10;;
10333;SDS011;5212;47.892;16.406;2023-07-08T11:24:45;3.20;;;2.90;;
10333;SDS011;5212;47.892;16.406;2023-07-08T11:27:16;3.27;;;2.93;;
10333;SDS011;5212;47.892;16.406;2023-07-08T11:29:50;5.20;;;3.20;;
10333;SDS011;5212;47.892;16.406;2023-07-08T11:32:19;3.40;;;3.10;;
10333;SDS011;5212;47.892;16.406;2023-07-08T11:34:47;3.50;;;3.20;;
10333;SDS011;5212;47.892;16.406;2023-07-08T11:37:15;4.07;;;3.00;;
10333;SDS011;5212;47.892;16.406;2023-07-08T11:39:44;3.60;;;2.97;;
10333;SDS011;5212;47.892;16.406;2023-07-08T11:42:14;3.37;;;3.00;;
10333;SDS011;5212;47.892;16.406;2023-07-08T11:44:43;3.23;;;2.93;;
10333;SDS011;5212;47.892;16.406;2023-07-08T11:47:15;4.87;;;3.30;;
10333;SDS011;5212;47.892;16.406;2023-07-08T11:49:43;4.13;;;2.83;;
10333;SDS011;5212;47.892;16.406;2023-07-08T11:52:12;5.30;;;3.00;;
10333;SDS011;5212;47.892;16.406;2023-07-08T11:54:43;4.63;;;2.97;;
10333;SDS011;5212;47.892;16.406;2023-07-08T11:57:16;4.33;;;3.10;;
10333;SDS011;5212;47.892;16.406;2023-07-08T11:59:43;4.77;;;3.23;;
10333;SDS011;5212;47.892;16.406;2023-07-08T12:02:11;4.27;;;3.40;;
10333;SDS011;5212;47.892;16.406;2023-07-08T12:04:51;4.37;;;3.20;;
10333;SDS011;5212;47.892;16.406;2023-07-08T12:07:20;5.77;;;3.57;;
10333;SDS011;5212;47.892;16.406;2023-07-08T12:09:57;4.07;;;3.20;;
10333;SDS011;5212;47.892;16.406;2023-07-08T12:12:27;3.50;;;3.20;;
10333;SDS011;5212;47.892;16.406;2023-07-08T12:14:58;5.60;;;3.27;;
10333;SDS011;5212;47.892;16.406;2023-07-08T12:17:30;4.70;;;3.23;;
10333;SDS011;5212;47.892;16.406;2023-07-08T12:19:56;5.33;;;3.13;;
10333;SDS011;5212;47.892;16.406;2023-07-08T12:22:23;3.73;;;3.07;;
10333;SDS011;5212;47.892;16.406;2023-07-08T12:24:49;3.50;;;3.20;;
10333;SDS011;5212;47.892;16.406;2023-07-08T12:27:15;4.30;;;3.40;;
10333;SDS011;5212;47.892;16.406;2023-07-08T12:29:41;6.67;;;3.30;;
10333;SDS011;5212;47.892;16.406;2023-07-08T12:32:10;3.30;;;3.00;;
10333;SDS011;5212;47.892;16.406;2023-07-08T12:34:37;3.23;;;2.93;;
10333;SDS011;5212;47.892;16.406;2023-07-08T12:37:04;5.17;;;3.00;;
10333;SDS011;5212;47.892;16.406;2023-07-08T12:39:37;4.40;;;2.93;;
10333;SDS011;5212;47.892;16.406;2023-07-08T12:42:04;3.73;;;2.80;;
10333;SDS011;5212;47.892;16.406;2023-07-08T12:44:34;3.10;;;2.77;;
10333;SDS011;5212;47.892;16.406;2023-07-08T12:47:02;3.37;;;3.07;;
10333;SDS011;5212;47.892;16.406;2023-07-08T12:49:29;3.23;;;2.93;;
10333;SDS011;5212;47.892;16.406;2023-07-08T12:51:55;3.93;;;2.90;;
10333;SDS011;5212;47.892;16.406;2023-07-08T12:54:21;4.57;;;3.10;;
10333;SDS011;5212;47.892;16.406;2023-07-08T12:56:47;3.10;;;2.80;;
10333;SDS011;5212;47.892;16.406;2023-07-08T12:59:14;3.53;;;3.20;;
10333;SDS011;5212;47.892;16.406;2023-07-08T13:01:43;4.80;;;3.20;;
10333;SDS011;5212;47.892;16.406;2023-07-08T13:04:11;3.10;;;2.80;;
10333;SDS011;5212;47.892;16.406;2023-07-08T13:06:39;3.10;;;2.80;;
10333;SDS011;5212;47.892;16.406;2023-07-08T13:09:07;3.70;;;3.07;;
10333;SDS011;5212;47.892;16.406;2023-07-08T13:11:36;3.40;;;3.07;;
10333;SDS011;5212;47.892;16.406;2023-07-08T13:14:03;3.20;;;2.90;;
10333;SDS011;5212;47.892;16.406;2023-07-08T13:16:31;3.33;;;3.03;;
10333;SDS011;5212;47.892;16.406;2023-07-08T13:18:58;3.93;;;3.20;;
10333;SDS011;5212;47.892;16.406;2023-07-08T13:21:25;3.73;;;3.10;;
10333;SDS011;5212;47.892;16.406;2023-07-08T13:23:52;5.33;;;3.23;;
10333;SDS011;5212;47.892;16.406;2023-07-08T13:26:19;5.23;;;3.60;;
10333;SDS011;5212;47.892;16.406;2023-07-08T13:28:48;3.60;;;3.20;;
10333;SDS011;5212;47.892;16.406;2023-07-08T13:31:15;3.30;;;2.97;;
10333;SDS011;5212;47.892;16.406;2023-07-08T13:33:45;3.33;;;2.90;;
10333;SDS011;5212;47.892;16.406;2023-07-08T13:36:12;3.97;;;3.27;;
10333;SDS011;5212;47.892;16.406;2023-07-08T13:38:39;5.03;;;2.90;;
10333;SDS011;5212;47.892;16.406;2023-07-08T13:41:07;3.53;;;3.07;;
10333;SDS011;5212;47.892;16.406;2023-07-08T13:43:34;4.17;;;3.00;;
10333;SDS011;5212;47.892;16.406;2023-07-08T13:46:01;4.17;;;2.80;;
10333;SDS011;5212;47.892;16.406;2023-07-08T13:48:29;5.97;;;3.30;;
10333;SDS011;5212;47.892;16.406;2023-07-08T13:50:57;4.07;;;3.30;;
10333;SDS011;5212;47.892;16.406;2023-07-08T13:53:27;10.80;;;5.23;;
10333;SDS011;5212;47.892;16.406;2023-07-08T13:56:15;4.27;;;2.80;;
10333;SDS011;5212;47.892;16.406;2023-07-08T13:58:47;28.33;;;12.50;;
10333;SDS011;5212;47.892;16.406;2023-07-08T14:01:15;8.17;;;5.00;;
10333;SDS011;5212;47.892;16.406;2023-07-08T14:03:44;4.23;;;3.40;;
10333;SDS011;5212;47.892;16.406;2023-07-08T14:06:12;4.70;;;3.60;;
10333;SDS011;5212;47.892;16.406;2023-07-08T14:08:39;3.70;;;3.40;;
10333;SDS011;5212;47.892;16.406;2023-07-08T14:11:05;3.40;;;3.10;;
10333;SDS011;5212;47.892;16.406;2023-07-08T14:13:32;4.37;;;3.07;;
10333;SDS011;5212;47.892;16.406;2023-07-08T14:15:58;4.10;;;3.67;;
10333;SDS011;5212;47.892;16.406;2023-07-08T14:18:25;3.97;;;3.00;;
10333;SDS011;5212;47.892;16.406;2023-07-08T14:20:51;6.77;;;4.20;;
10333;SDS011;5212;47.892;16.406;2023-07-08T14:23:17;3.70;;;3.30;;
10333;SDS011;5212;47.892;16.406;2023-07-08T14:25:44;4.30;;;3.50;;
10333;SDS011;5212;47.892;16.406;2023-07-08T14:28:10;5.80;;;3.63;;
10333;SDS011;5212;47.892;16.406;2023-07-08T14:30:38;3.87;;;3.50;;
10333;SDS011;5212;47.892;16.406;2023-07-08T14:33:08;3.67;;;3.27;;
10333;SDS011;5212;47.892;16.406;2023-07-08T14:35:34;3.73;;;3.33;;
10333;SDS011;5212;47.892;16.406;2023-07-08T14:38:00;5.70;;;3.03;;
10333;SDS011;5212;47.892;16.406;2023-07-08T14:40:29;7.33;;;3.40;;
10333;SDS011;5212;47.892;16.406;2023-07-08T14:43:00;5.80;;;3.13;;
10333;SDS011;5212;47.892;16.406;2023-07-08T14:45:28;4.23;;;3.83;;
10333;SDS011;5212;47.892;16.406;2023-07-08T14:47:55;3.50;;;3.20;;
10333;SDS011;5212;47.892;16.406;2023-07-08T14:50:21;5.47;;;3.17;;
10333;SDS011;5212;47.892;16.406;2023-07-08T14:52:47;3.30;;;3.00;;